sensor_id;sensor_type;location;lat;lon;timestamp;P1;durP1;ratioP1;P2;durP2;ratioP2
37645;SDS011;23489;49.600;6.138;2023-06-14T00:01:44;6.70;;;5.30;;
37645;SDS011;23489;49.600;6.138;2023-06-14T00:04:11;5.25;;;4.75;;
37645;SDS011;23489;49.600;6.138;2023-06-14T00:06:37;5.57;;;4.63;;
37645;SDS011;23489;49.600;6.138;2023-06-14T00:09:03;7.90;;;5.10;;
37645;SDS011;23489;49.600;6.138;2023-06-14T00:11:30;7.15;;;4.95;;
37645;SDS011;23489;49.600;6.138;2023-06-14T00:13:56;6.63;;;4.95;;
37645;SDS011;23489;49.600;6.138;2023-06-14T00:16:22;6.57;;;4.72;;
37645;SDS011;23489;49.600;6.138;2023-06-14T00:18:49;5.28;;;4.57;;
37645;SDS011;23489;49.600;6.138;2023-06-14T00:21:16;5.60;;;4.68;;
37645;SDS011;23489;49.600;6.138;2023-06-14T00:23:42;7.50;;;5.10;;
37645;SDS011;23489;49.600;6.138;2023-06-14T00:26:08;5.53;;;4.85;;
37645;SDS011;23489;49.600;6.138;2023-06-14T00:28:34;5.13;;;4.60;;
37645;SDS011;23489;49.600;6.138;2023-06-14T00:30:59;5.88;;;4.78;;
37645;SDS011;23489;49.600;6.138;2023-06-14T00:33:27;5.05;;;4.55;;
37645;SDS011;23489;49.600;6.138;2023-06-14T00:35:52;7.20;;;5.30;;
37645;SDS011;23489;49.600;6.138;2023-06-14T00:38:19;5.70;;;5.10;;
37645;SDS011;23489;49.600;6.138;2023-06-14T00:40:46;5.65;;;4.82;;
37645;SDS011;23489;49.600;6.138;2023-06-14T00:43:12;5.30;;;4.80;;
37645;SDS011;23489;49.600;6.138;2023-06-14T00:45:38;5.85;;;4.60;;
37645;SDS011;23489;49.600;6.138;2023-06-14T00:48:04;6.47;;;4.82;;
37645;SDS011;23489;49.600;6.138;2023-06-14T00:50:31;5.80;;;4.78;;
37645;SDS011;23489;49.600;6.138;2023-06-14T00:52:58;6.97;;;4.88;;
37645;SDS011;23489;49.600;6.138;2023-06-14T00:55:24;6.47;;;4.90;;
37645;SDS011;23489;49.600;6.138;2023-06-14T00:57:50;6.23;;;4.87;;
37645;SDS011;23489;49.600;6.138;2023-06-14T01:00:16;6.43;;;5.10;;
37645;SDS011;23489;49.600;6.138;2023-06-14T01:02:42;6.77;;;5.50;;
37645;SDS011;23489;49.600;6.138;2023-06-14T01:05:08;6.78;;;4.90;;
37645;SDS011;23489;49.600;6.138;2023-06-14T01:07:51;6.47;;;4.80;;
37645;SDS011;23489;49.600;6.138;2023-06-14T01:10:47;5.40;;;4.90;;
37645;SDS011;23489;49.600;6.138;2023-06-14T01:13:38;5.72;;;5.13;;
37645;SDS011;23489;49.600;6.138;2023-06-14T01:16:05;6.05;;;4.80;;
37645;SDS011;23489;49.600;6.138;2023-06-14T01:18:32;6.13;;;5.30;;
37645;SDS011;23489;49.600;6.138;2023-06-14T01:21:00;5.57;;;4.72;;
37645;SDS011;23489;49.600;6.138;2023-06-14T01:23:30;7.27;;;4.97;;
37645;SDS011;23489;49.600;6.138;2023-06-14T01:25:58;6.80;;;5.03;;
37645;SDS011;23489;49.600;6.138;2023-06-14T01:28:25;7.43;;;5.15;;
37645;SDS011;23489;49.600;6.138;2023-06-14T01:30:57;5.85;;;5.22;;
37645;SDS011;23489;49.600;6.138;2023-06-14T01:33:28;6.20;;;5.07;;
37645;SDS011;23489;49.600;6.138;2023-06-14T01:35:57;7.97;;;5.10;;
37645;SDS011;23489;49.600;6.138;2023-06-14T01:38:24;6.43;;;5.30;;
37645;SDS011;23489;49.600;6.138;2023-06-14T01:40:51;7.55;;;5.28;;
37645;SDS011;23489;49.600;6.138;2023-06-14T01:43:19;7.95;;;5.20;;
37645;SDS011;23489;49.600;6.138;2023-06-14T01:45:45;7.40;;;5.53;;
37645;SDS011;23489;49.600;6.138;2023-06-14T01:48:13;6.25;;;5.07;;
37645;SDS011;23489;49.600;6.138;2023-06-14T01:50:39;7.57;;;5.45;;
37645;SDS011;23489;49.600;6.138;2023-06-14T01:53:09;5.40;;;4.90;;
37645;SDS011;23489;49.600;6.138;2023-06-14T01:55:36;5.30;;;4.80;;
37645;SDS011;23489;49.600;6.138;2023-06-14T01:58:05;8.00;;;4.93;;
37645;SDS011;23489;49.600;6.138;2023-06-14T02:00:31;7.80;;;4.80;;
37645;SDS011;23489;49.600;6.138;2023-06-14T02:02:57;7.72;;;5.03;;
37645;SDS011;23489;49.600;6.138;2023-06-14T02:05:25;6.07;;;5.15;;
37645;SDS011;23489;49.600;6.138;2023-06-14T02:07:51;6.40;;;5.43;;
37645;SDS011;23489;49.600;6.138;2023-06-14T02:10:18;7.35;;;5.60;;
37645;SDS011;23489;49.600;6.138;2023-06-14T02:12:46;7.35;;;5.45;;
37645;SDS011;23489;49.600;6.138;2023-06-14T02:15:11;8.32;;;5.40;;
37645;SDS011;23489;49.600;6.138;2023-06-14T02:17:45;6.38;;;5.32;;
37645;SDS011;23489;49.600;6.138;2023-06-14T02:20:12;8.45;;;5.30;;
37645;SDS011;23489;49.600;6.138;2023-06-14T02:22:38;6.07;;;5.43;;
37645;SDS011;23489;49.600;6.138;2023-06-14T02:25:06;5.88;;;4.78;;
37645;SDS011;23489;49.600;6.138;2023-06-14T02:27:32;7.10;;;4.80;;
37645;SDS011;23489;49.600;6.138;2023-06-14T02:29:58;6.18;;;5.00;;
37645;SDS011;23489;49.600;6.138;2023-06-14T02:32:25;6.32;;;5.05;;
37645;SDS011;23489;49.600;6.138;2023-06-14T02:34:52;9.57;;;5.40;;
37645;SDS011;23489;49.600;6.138;2023-06-14T02:37:18;7.68;;;5.15;;
37645;SDS011;23489;49.600;6.138;2023-06-14T02:39:45;8.70;;;5.20;;
37645;SDS011;23489;49.600;6.138;2023-06-14T02:42:11;10.02;;;5.68;;
37645;SDS011;23489;49.600;6.138;2023-06-14T02:44:37;8.07;;;5.32;;
37645;SDS011;23489;49.600;6.138;2023-06-14T02:47:03;7.70;;;5.22;;
37645;SDS011;23489;49.600;6.138;2023-06-14T02:49:29;9.23;;;4.95;;
37645;SDS011;23489;49.600;6.138;2023-06-14T02:51:55;6.95;;;5.07;;
37645;SDS011;23489;49.600;6.138;2023-06-14T02:54:21;7.60;;;5.18;;
37645;SDS011;23489;49.600;6.138;2023-06-14T02:56:47;9.73;;;5.43;;
37645;SDS011;23489;49.600;6.138;2023-06-14T02:59:12;5.45;;;4.93;;
37645;SDS011;23489;49.600;6.138;2023-06-14T03:01:39;5.85;;;5.05;;
37645;SDS011;23489;49.600;6.138;2023-06-14T03:04:07;8.32;;;5.90;;
37645;SDS011;23489;49.600;6.138;2023-06-14T03:06:36;7.00;;;5.40;;
37645;SDS011;23489;49.600;6.138;2023-06-14T03:09:02;6.07;;;5.30;;
37645;SDS011;23489;49.600;6.138;2023-06-14T03:11:33;8.70;;;5.43;;
37645;SDS011;23489;49.600;6.138;2023-06-14T03:14:00;6.78;;;5.65;;
37645;SDS011;23489;49.600;6.138;2023-06-14T03:16:26;5.97;;;5.38;;
37645;SDS011;23489;49.600;6.138;2023-06-14T03:18:55;5.78;;;5.15;;
37645;SDS011;23489;49.600;6.138;2023-06-14T03:21:23;7.53;;;5.22;;
37645;SDS011;23489;49.600;6.138;2023-06-14T03:23:50;5.97;;;5.37;;
37645;SDS011;23489;49.600;6.138;2023-06-14T03:26:16;6.65;;;5.35;;
37645;SDS011;23489;49.600;6.138;2023-06-14T03:28:45;6.40;;;5.50;;
37645;SDS011;23489;49.600;6.138;2023-06-14T03:31:11;7.43;;;5.20;;
37645;SDS011;23489;49.600;6.138;2023-06-14T03:33:37;5.80;;;5.20;;
37645;SDS011;23489;49.600;6.138;2023-06-14T03:36:04;7.13;;;5.43;;
37645;SDS011;23489;49.600;6.138;2023-06-14T03:38:31;7.20;;;5.35;;
37645;SDS011;23489;49.600;6.138;2023-06-14T03:40:57;6.20;;;5.13;;
37645;SDS011;23489;49.600;6.138;2023-06-14T03:43:22;6.47;;;5.30;;
37645;SDS011;23489;49.600;6.138;2023-06-14T03:45:48;8.38;;;5.15;;
37645;SDS011;23489;49.600;6.138;2023-06-14T03:48:14;8.53;;;5.60;;
37645;SDS011;23489;49.600;6.138;2023-06-14T03:50:40;9.13;;;5.45;;
37645;SDS011;23489;49.600;6.138;2023-06-14T03:53:07;7.00;;;5.25;;
37645;SDS011;23489;49.600;6.138;2023-06-14T03:55:35;6.88;;;5.25;;
37645;SDS011;23489;49.600;6.138;2023-06-14T03:58:03;8.83;;;5.30;;
37645;SDS011;23489;49.600;6.138;2023-06-14T04:00:31;7.20;;;5.38;;
37645;SDS011;23489;49.600;6.138;2023-06-14T04:02:57;7.20;;;5.20;;
37645;SDS011;23489;49.600;6.138;2023-06-14T04:05:24;8.25;;;4.97;;
37645;SDS011;23489;49.600;6.138;2023-06-14T04:07:52;6.10;;;5.10;;
37645;SDS011;23489;49.600;6.138;2023-06-14T04:10:20;6.05;;;5.05;;
37645;SDS011;23489;49.600;6.138;2023-06-14T04:12:46;5.53;;;5.00;;
37645;SDS011;23489;49.600;6.138;2023-06-14T04:15:12;7.25;;;5.10;;
37645;SDS011;23489;49.600;6.138;2023-06-14T04:17:38;7.10;;;5.13;;
37645;SDS011;23489;49.600;6.138;2023-06-14T04:20:05;6.10;;;5.10;;
37645;SDS011;23489;49.600;6.138;2023-06-14T04:22:34;8.40;;;5.25;;
37645;SDS011;23489;49.600;6.138;2023-06-14T04:25:02;7.22;;;5.53;;
37645;SDS011;23489;49.600;6.138;2023-06-14T04:27:29;6.35;;;5.43;;
37645;SDS011;23489;49.600;6.138;2023-06-14T04:29:58;5.47;;;4.93;;
37645;SDS011;23489;49.600;6.138;2023-06-14T04:32:31;6.22;;;5.13;;
37645;SDS011;23489;49.600;6.138;2023-06-14T04:34:59;5.53;;;4.83;;
37645;SDS011;23489;49.600;6.138;2023-06-14T04:37:30;6.80;;;5.30;;
37645;SDS011;23489;49.600;6.138;2023-06-14T04:39:56;6.93;;;5.50;;
37645;SDS011;23489;49.600;6.138;2023-06-14T04:42:22;7.63;;;5.25;;
37645;SDS011;23489;49.600;6.138;2023-06-14T04:44:57;7.32;;;5.03;;
37645;SDS011;23489;49.600;6.138;2023-06-14T04:47:23;6.13;;;5.10;;
37645;SDS011;23489;49.600;6.138;2023-06-14T04:49:50;7.30;;;5.25;;
37645;SDS011;23489;49.600;6.138;2023-06-14T04:52:20;7.40;;;4.85;;
37645;SDS011;23489;49.600;6.138;2023-06-14T04:54:46;5.70;;;5.20;;
37645;SDS011;23489;49.600;6.138;2023-06-14T04:57:16;6.22;;;4.90;;
37645;SDS011;23489;49.600;6.138;2023-06-14T04:59:44;7.82;;;5.20;;
37645;SDS011;23489;49.600;6.138;2023-06-14T05:02:12;7.82;;;5.30;;
37645;SDS011;23489;49.600;6.138;2023-06-14T05:04:39;6.20;;;4.90;;
37645;SDS011;23489;49.600;6.138;2023-06-14T05:07:08;7.50;;;5.03;;
37645;SDS011;23489;49.600;6.138;2023-06-14T05:09:37;8.23;;;5.60;;
37645;SDS011;23489;49.600;6.138;2023-06-14T05:12:03;8.10;;;5.17;;
37645;SDS011;23489;49.600;6.138;2023-06-14T05:14:29;6.07;;;5.17;;
37645;SDS011;23489;49.600;6.138;2023-06-14T05:16:56;12.13;;;5.18;;
37645;SDS011;23489;49.600;6.138;2023-06-14T05:19:22;6.13;;;5.13;;
37645;SDS011;23489;49.600;6.138;2023-06-14T05:21:48;7.35;;;5.50;;
37645;SDS011;23489;49.600;6.138;2023-06-14T05:24:14;6.63;;;4.97;;
37645;SDS011;23489;49.600;6.138;2023-06-14T05:26:40;6.25;;;5.07;;
37645;SDS011;23489;49.600;6.138;2023-06-14T05:29:06;7.68;;;5.30;;
37645;SDS011;23489;49.600;6.138;2023-06-14T05:31:32;6.50;;;4.93;;
37645;SDS011;23489;49.600;6.138;2023-06-14T05:33:57;7.50;;;5.20;;
37645;SDS011;23489;49.600;6.138;2023-06-14T05:36:23;7.37;;;4.80;;
37645;SDS011;23489;49.600;6.138;2023-06-14T05:38:49;7.43;;;5.10;;
37645;SDS011;23489;49.600;6.138;2023-06-14T05:41:15;8.32;;;5.20;;
37645;SDS011;23489;49.600;6.138;2023-06-14T05:43:41;6.22;;;4.90;;
37645;SDS011;23489;49.600;6.138;2023-06-14T05:46:07;7.17;;;5.27;;
37645;SDS011;23489;49.600;6.138;2023-06-14T05:48:33;7.53;;;5.00;;
37645;SDS011;23489;49.600;6.138;2023-06-14T05:50:58;8.40;;;5.00;;
37645;SDS011;23489;49.600;6.138;2023-06-14T05:53:24;7.35;;;5.30;;
37645;SDS011;23489;49.600;6.138;2023-06-14T05:55:50;8.30;;;5.35;;
37645;SDS011;23489;49.600;6.138;2023-06-14T05:58:20;6.78;;;5.18;;
37645;SDS011;23489;49.600;6.138;2023-06-14T06:00:46;6.93;;;4.93;;
37645;SDS011;23489;49.600;6.138;2023-06-14T06:03:12;6.90;;;5.00;;
37645;SDS011;23489;49.600;6.138;2023-06-14T06:05:38;7.78;;;5.00;;
37645;SDS011;23489;49.600;6.138;2023-06-14T06:08:04;7.20;;;5.00;;
37645;SDS011;23489;49.600;6.138;2023-06-14T06:10:30;8.27;;;5.00;;
37645;SDS011;23489;49.600;6.138;2023-06-14T06:12:56;8.23;;;5.00;;
37645;SDS011;23489;49.600;6.138;2023-06-14T06:15:21;6.37;;;4.70;;
37645;SDS011;23489;49.600;6.138;2023-06-14T06:17:47;7.07;;;4.63;;
37645;SDS011;23489;49.600;6.138;2023-06-14T06:20:12;8.60;;;4.40;;
37645;SDS011;23489;49.600;6.138;2023-06-14T06:22:38;6.70;;;4.70;;
37645;SDS011;23489;49.600;6.138;2023-06-14T06:25:04;8.10;;;4.68;;
37645;SDS011;23489;49.600;6.138;2023-06-14T06:27:31;5.60;;;4.00;;
37645;SDS011;23489;49.600;6.138;2023-06-14T06:29:57;7.60;;;4.77;;
37645;SDS011;23489;49.600;6.138;2023-06-14T06:32:22;5.43;;;4.53;;
37645;SDS011;23489;49.600;6.138;2023-06-14T06:34:48;6.80;;;4.50;;
37645;SDS011;23489;49.600;6.138;2023-06-14T06:37:13;7.73;;;4.30;;
37645;SDS011;23489;49.600;6.138;2023-06-14T06:39:39;8.30;;;4.40;;
37645;SDS011;23489;49.600;6.138;2023-06-14T06:42:05;6.67;;;4.20;;
37645;SDS011;23489;49.600;6.138;2023-06-14T06:44:35;6.57;;;4.53;;
37645;SDS011;23489;49.600;6.138;2023-06-14T06:47:01;7.63;;;4.25;;
37645;SDS011;23489;49.600;6.138;2023-06-14T06:49:27;5.18;;;4.30;;
37645;SDS011;23489;49.600;6.138;2023-06-14T06:52:03;5.67;;;4.23;;
37645;SDS011;23489;49.600;6.138;2023-06-14T06:54:29;5.07;;;4.00;;
37645;SDS011;23489;49.600;6.138;2023-06-14T06:56:55;6.13;;;4.30;;
37645;SDS011;23489;49.600;6.138;2023-06-14T07:09:04;4.72;;;4.00;;
37645;SDS011;23489;49.600;6.138;2023-06-14T07:11:33;6.10;;;4.40;;
37645;SDS011;23489;49.600;6.138;2023-06-14T07:13:59;6.13;;;4.67;;
37645;SDS011;23489;49.600;6.138;2023-06-14T07:16:24;6.95;;;4.47;;
37645;SDS011;23489;49.600;6.138;2023-06-14T07:18:50;6.35;;;4.00;;
37645;SDS011;23489;49.600;6.138;2023-06-14T07:21:17;7.55;;;4.18;;
37645;SDS011;23489;49.600;6.138;2023-06-14T07:23:43;6.20;;;4.10;;
37645;SDS011;23489;49.600;6.138;2023-06-14T07:26:08;5.35;;;4.63;;
37645;SDS011;23489;49.600;6.138;2023-06-14T07:28:34;4.13;;;3.80;;
37645;SDS011;23489;49.600;6.138;2023-06-14T07:30:59;6.30;;;4.38;;
37645;SDS011;23489;49.600;6.138;2023-06-14T07:33:26;5.03;;;4.03;;
37645;SDS011;23489;49.600;6.138;2023-06-14T07:35:51;5.83;;;4.40;;
37645;SDS011;23489;49.600;6.138;2023-06-14T07:38:18;7.82;;;4.57;;
37645;SDS011;23489;49.600;6.138;2023-06-14T07:40:43;6.85;;;4.40;;
37645;SDS011;23489;49.600;6.138;2023-06-14T07:43:09;5.28;;;4.30;;
37645;SDS011;23489;49.600;6.138;2023-06-14T07:45:34;5.03;;;3.80;;
37645;SDS011;23489;49.600;6.138;2023-06-14T07:48:00;6.85;;;3.95;;
37645;SDS011;23489;49.600;6.138;2023-06-14T07:50:26;5.30;;;4.28;;
37645;SDS011;23489;49.600;6.138;2023-06-14T07:52:51;7.30;;;4.35;;
37645;SDS011;23489;49.600;6.138;2023-06-14T07:55:17;5.85;;;3.92;;
37645;SDS011;23489;49.600;6.138;2023-06-14T07:57:43;7.93;;;4.47;;
37645;SDS011;23489;49.600;6.138;2023-06-14T08:00:09;6.03;;;4.40;;
37645;SDS011;23489;49.600;6.138;2023-06-14T08:02:40;6.88;;;4.60;;
37645;SDS011;23489;49.600;6.138;2023-06-14T08:05:09;4.35;;;3.95;;
37645;SDS011;23489;49.600;6.138;2023-06-14T08:07:36;5.80;;;3.58;;
37645;SDS011;23489;49.600;6.138;2023-06-14T08:10:02;7.63;;;4.13;;
37645;SDS011;23489;49.600;6.138;2023-06-14T08:12:29;5.65;;;4.20;;
37645;SDS011;23489;49.600;6.138;2023-06-14T08:14:55;4.90;;;4.18;;
37645;SDS011;23489;49.600;6.138;2023-06-14T08:17:20;9.00;;;4.30;;
37645;SDS011;23489;49.600;6.138;2023-06-14T08:19:46;5.97;;;3.83;;
37645;SDS011;23489;49.600;6.138;2023-06-14T08:22:12;4.95;;;4.30;;
37645;SDS011;23489;49.600;6.138;2023-06-14T08:24:37;7.93;;;3.88;;
37645;SDS011;23489;49.600;6.138;2023-06-14T08:27:04;4.93;;;3.95;;
37645;SDS011;23489;49.600;6.138;2023-06-14T08:29:31;5.50;;;3.92;;
37645;SDS011;23489;49.600;6.138;2023-06-14T08:31:56;6.43;;;3.83;;
37645;SDS011;23489;49.600;6.138;2023-06-14T08:34:22;7.88;;;4.25;;
37645;SDS011;23489;49.600;6.138;2023-06-14T08:36:50;6.43;;;4.00;;
37645;SDS011;23489;49.600;6.138;2023-06-14T08:39:16;6.70;;;3.97;;
37645;SDS011;23489;49.600;6.138;2023-06-14T08:41:45;4.18;;;3.78;;
37645;SDS011;23489;49.600;6.138;2023-06-14T08:44:13;4.25;;;3.85;;
37645;SDS011;23489;49.600;6.138;2023-06-14T08:46:40;4.72;;;3.67;;
37645;SDS011;23489;49.600;6.138;2023-06-14T08:49:07;4.13;;;3.72;;
37645;SDS011;23489;49.600;6.138;2023-06-14T08:51:36;4.85;;;3.67;;
37645;SDS011;23489;49.600;6.138;2023-06-14T08:54:02;7.38;;;4.15;;
37645;SDS011;23489;49.600;6.138;2023-06-14T08:56:29;5.88;;;4.07;;
37645;SDS011;23489;49.600;6.138;2023-06-14T08:58:56;4.45;;;3.50;;
37645;SDS011;23489;49.600;6.138;2023-06-14T09:01:23;5.38;;;4.35;;
37645;SDS011;23489;49.600;6.138;2023-06-14T09:03:49;4.13;;;3.70;;
37645;SDS011;23489;49.600;6.138;2023-06-14T09:06:15;5.97;;;3.83;;
37645;SDS011;23489;49.600;6.138;2023-06-14T09:08:44;6.32;;;3.92;;
37645;SDS011;23489;49.600;6.138;2023-06-14T09:11:14;7.63;;;4.25;;
37645;SDS011;23489;49.600;6.138;2023-06-14T09:13:41;7.13;;;3.65;;
37645;SDS011;23489;49.600;6.138;2023-06-14T09:16:08;4.30;;;3.50;;
37645;SDS011;23489;49.600;6.138;2023-06-14T09:18:40;6.97;;;3.78;;
37645;SDS011;23489;49.600;6.138;2023-06-14T09:21:09;5.63;;;3.75;;
37645;SDS011;23489;49.600;6.138;2023-06-14T09:23:43;6.43;;;3.80;;
37645;SDS011;23489;49.600;6.138;2023-06-14T09:26:14;4.05;;;3.63;;
37645;SDS011;23489;49.600;6.138;2023-06-14T09:28:44;6.43;;;3.90;;
37645;SDS011;23489;49.600;6.138;2023-06-14T09:31:14;3.75;;;3.42;;
37645;SDS011;23489;49.600;6.138;2023-06-14T09:33:41;4.28;;;3.88;;
37645;SDS011;23489;49.600;6.138;2023-06-14T09:36:13;5.22;;;3.75;;
37645;SDS011;23489;49.600;6.138;2023-06-14T09:38:52;4.47;;;3.70;;
37645;SDS011;23489;49.600;6.138;2023-06-14T09:41:19;5.75;;;3.60;;
37645;SDS011;23489;49.600;6.138;2023-06-14T09:43:46;5.97;;;3.40;;
37645;SDS011;23489;49.600;6.138;2023-06-14T09:46:12;5.65;;;3.58;;
37645;SDS011;23489;49.600;6.138;2023-06-14T09:48:38;4.00;;;3.60;;
37645;SDS011;23489;49.600;6.138;2023-06-14T09:51:09;4.05;;;3.53;;
37645;SDS011;23489;49.600;6.138;2023-06-14T09:53:39;6.32;;;3.78;;
37645;SDS011;23489;49.600;6.138;2023-06-14T09:56:07;4.32;;;3.50;;
37645;SDS011;23489;49.600;6.138;2023-06-14T09:58:35;5.18;;;3.10;;
37645;SDS011;23489;49.600;6.138;2023-06-14T10:01:04;5.03;;;3.40;;
37645;SDS011;23489;49.600;6.138;2023-06-14T10:03:33;5.57;;;3.80;;
37645;SDS011;23489;49.600;6.138;2023-06-14T10:06:02;6.82;;;3.47;;
37645;SDS011;23489;49.600;6.138;2023-06-14T10:08:32;6.40;;;3.72;;
37645;SDS011;23489;49.600;6.138;2023-06-14T10:11:02;6.13;;;3.97;;
37645;SDS011;23489;49.600;6.138;2023-06-14T10:13:31;5.70;;;3.58;;
37645;SDS011;23489;49.600;6.138;2023-06-14T10:16:09;4.70;;;3.58;;
37645;SDS011;23489;49.600;6.138;2023-06-14T10:21:18;3.92;;;3.33;;
37645;SDS011;23489;49.600;6.138;2023-06-14T10:23:50;8.48;;;3.78;;
37645;SDS011;23489;49.600;6.138;2023-06-14T10:26:18;4.30;;;3.80;;
37645;SDS011;23489;49.600;6.138;2023-06-14T10:28:56;4.68;;;3.45;;
37645;SDS011;23489;49.600;6.138;2023-06-14T10:31:48;4.32;;;3.30;;
37645;SDS011;23489;49.600;6.138;2023-06-14T10:34:23;4.75;;;3.50;;
37645;SDS011;23489;49.600;6.138;2023-06-14T10:39:32;5.30;;;3.42;;
37645;SDS011;23489;49.600;6.138;2023-06-14T10:42:03;4.45;;;3.40;;
37645;SDS011;23489;49.600;6.138;2023-06-14T10:44:41;5.25;;;3.38;;
37645;SDS011;23489;49.600;6.138;2023-06-14T10:50:06;4.55;;;3.50;;
37645;SDS011;23489;49.600;6.138;2023-06-14T10:52:34;3.72;;;3.42;;
37645;SDS011;23489;49.600;6.138;2023-06-14T10:55:08;6.60;;;5.00;;
37645;SDS011;23489;49.600;6.138;2023-06-14T10:57:46;4.55;;;3.97;;
37645;SDS011;23489;49.600;6.138;2023-06-14T11:00:13;5.90;;;3.58;;
37645;SDS011;23489;49.600;6.138;2023-06-14T11:02:47;6.60;;;4.22;;
37645;SDS011;23489;49.600;6.138;2023-06-14T11:10:46;4.30;;;3.58;;
37645;SDS011;23489;49.600;6.138;2023-06-14T11:15:43;5.30;;;3.78;;
37645;SDS011;23489;49.600;6.138;2023-06-14T11:18:11;5.53;;;4.30;;
37645;SDS011;23489;49.600;6.138;2023-06-14T11:20:39;5.70;;;3.67;;
37645;SDS011;23489;49.600;6.138;2023-06-14T11:23:05;6.75;;;3.78;;
37645;SDS011;23489;49.600;6.138;2023-06-14T11:25:31;6.87;;;3.53;;
37645;SDS011;23489;49.600;6.138;2023-06-14T11:27:57;6.03;;;4.03;;
37645;SDS011;23489;49.600;6.138;2023-06-14T11:30:24;5.38;;;3.90;;
37645;SDS011;23489;49.600;6.138;2023-06-14T11:32:55;4.80;;;4.00;;
37645;SDS011;23489;49.600;6.138;2023-06-14T11:35:22;4.78;;;3.88;;
37645;SDS011;23489;49.600;6.138;2023-06-14T11:37:48;6.20;;;4.30;;
37645;SDS011;23489;49.600;6.138;2023-06-14T11:40:17;4.47;;;3.90;;
37645;SDS011;23489;49.600;6.138;2023-06-14T11:42:43;4.90;;;3.50;;
37645;SDS011;23489;49.600;6.138;2023-06-14T11:45:09;7.10;;;3.70;;
37645;SDS011;23489;49.600;6.138;2023-06-14T11:47:36;4.40;;;3.60;;
37645;SDS011;23489;49.600;6.138;2023-06-14T11:50:03;4.20;;;3.80;;
37645;SDS011;23489;49.600;6.138;2023-06-14T11:52:30;5.25;;;3.70;;
37645;SDS011;23489;49.600;6.138;2023-06-14T11:54:56;5.80;;;3.65;;
37645;SDS011;23489;49.600;6.138;2023-06-14T11:57:22;8.02;;;4.20;;
37645;SDS011;23489;49.600;6.138;2023-06-14T11:59:49;4.97;;;3.90;;
37645;SDS011;23489;49.600;6.138;2023-06-14T12:02:15;5.25;;;3.67;;
37645;SDS011;23489;49.600;6.138;2023-06-14T12:04:42;4.40;;;3.67;;
37645;SDS011;23489;49.600;6.138;2023-06-14T12:07:11;5.63;;;3.80;;
37645;SDS011;23489;49.600;6.138;2023-06-14T12:09:43;5.63;;;3.63;;
37645;SDS011;23489;49.600;6.138;2023-06-14T12:12:28;6.57;;;3.90;;
37645;SDS011;23489;49.600;6.138;2023-06-14T12:14:56;6.45;;;4.00;;
37645;SDS011;23489;49.600;6.138;2023-06-14T12:17:22;9.50;;;6.15;;
37645;SDS011;23489;49.600;6.138;2023-06-14T12:19:48;5.17;;;3.70;;
37645;SDS011;23489;49.600;6.138;2023-06-14T12:22:15;6.05;;;3.53;;
37645;SDS011;23489;49.600;6.138;2023-06-14T12:24:44;5.68;;;4.13;;
37645;SDS011;23489;49.600;6.138;2023-06-14T12:27:10;5.60;;;3.90;;
37645;SDS011;23489;49.600;6.138;2023-06-14T12:29:44;6.77;;;3.80;;
37645;SDS011;23489;49.600;6.138;2023-06-14T12:32:10;4.28;;;3.70;;
37645;SDS011;23489;49.600;6.138;2023-06-14T12:34:36;6.22;;;3.67;;
37645;SDS011;23489;49.600;6.138;2023-06-14T12:37:02;4.80;;;3.92;;
37645;SDS011;23489;49.600;6.138;2023-06-14T12:39:29;6.70;;;4.15;;
37645;SDS011;23489;49.600;6.138;2023-06-14T12:41:58;6.13;;;4.00;;
37645;SDS011;23489;49.600;6.138;2023-06-14T12:44:24;6.30;;;3.78;;
37645;SDS011;23489;49.600;6.138;2023-06-14T12:46:50;4.88;;;3.75;;
37645;SDS011;23489;49.600;6.138;2023-06-14T12:49:18;5.45;;;3.58;;
37645;SDS011;23489;49.600;6.138;2023-06-14T12:51:45;6.65;;;3.60;;
37645;SDS011;23489;49.600;6.138;2023-06-14T12:54:10;8.18;;;4.00;;
37645;SDS011;23489;49.600;6.138;2023-06-14T12:56:37;7.25;;;4.03;;
37645;SDS011;23489;49.600;6.138;2023-06-14T12:59:03;5.47;;;3.92;;
37645;SDS011;23489;49.600;6.138;2023-06-14T13:01:28;5.60;;;3.77;;
37645;SDS011;23489;49.600;6.138;2023-06-14T13:03:54;4.80;;;3.50;;
37645;SDS011;23489;49.600;6.138;2023-06-14T13:06:23;7.60;;;3.77;;
37645;SDS011;23489;49.600;6.138;2023-06-14T13:08:49;6.20;;;3.90;;
37645;SDS011;23489;49.600;6.138;2023-06-14T13:11:15;5.93;;;3.45;;
37645;SDS011;23489;49.600;6.138;2023-06-14T13:13:41;4.43;;;3.83;;
37645;SDS011;23489;49.600;6.138;2023-06-14T13:16:07;4.28;;;3.30;;
37645;SDS011;23489;49.600;6.138;2023-06-14T13:18:33;4.60;;;3.47;;
37645;SDS011;23489;49.600;6.138;2023-06-14T13:20:58;6.18;;;3.72;;
37645;SDS011;23489;49.600;6.138;2023-06-14T13:23:24;6.00;;;3.80;;
37645;SDS011;23489;49.600;6.138;2023-06-14T13:25:49;5.63;;;3.47;;
37645;SDS011;23489;49.600;6.138;2023-06-14T13:28:16;6.70;;;3.50;;
37645;SDS011;23489;49.600;6.138;2023-06-14T13:30:42;4.33;;;3.90;;
37645;SDS011;23489;49.600;6.138;2023-06-14T13:33:07;4.50;;;3.63;;
37645;SDS011;23489;49.600;6.138;2023-06-14T13:35:33;4.80;;;3.60;;
37645;SDS011;23489;49.600;6.138;2023-06-14T13:37:59;5.43;;;3.30;;
37645;SDS011;23489;49.600;6.138;2023-06-14T13:40:25;4.57;;;3.50;;
37645;SDS011;23489;49.600;6.138;2023-06-14T13:42:51;6.00;;;3.40;;
37645;SDS011;23489;49.600;6.138;2023-06-14T13:45:17;4.77;;;3.20;;
37645;SDS011;23489;49.600;6.138;2023-06-14T13:47:43;4.90;;;3.50;;
37645;SDS011;23489;49.600;6.138;2023-06-14T13:50:09;7.72;;;3.55;;
37645;SDS011;23489;49.600;6.138;2023-06-14T13:52:34;4.77;;;3.30;;
37645;SDS011;23489;49.600;6.138;2023-06-14T13:55:00;5.40;;;3.43;;
37645;SDS011;23489;49.600;6.138;2023-06-14T13:57:27;6.85;;;3.38;;
37645;SDS011;23489;49.600;6.138;2023-06-14T13:59:53;6.00;;;3.63;;
37645;SDS011;23489;49.600;6.138;2023-06-14T14:02:20;4.88;;;3.10;;
37645;SDS011;23489;49.600;6.138;2023-06-14T14:04:46;3.87;;;3.20;;
37645;SDS011;23489;49.600;6.138;2023-06-14T14:07:17;5.47;;;3.40;;
37645;SDS011;23489;49.600;6.138;2023-06-14T14:09:44;4.35;;;3.30;;
37645;SDS011;23489;49.600;6.138;2023-06-14T14:12:09;5.10;;;3.40;;
37645;SDS011;23489;49.600;6.138;2023-06-14T14:14:36;5.40;;;3.38;;
37645;SDS011;23489;49.600;6.138;2023-06-14T14:17:02;6.23;;;3.43;;
37645;SDS011;23489;49.600;6.138;2023-06-14T14:19:27;6.57;;;3.23;;
37645;SDS011;23489;49.600;6.138;2023-06-14T14:21:53;8.20;;;3.22;;
37645;SDS011;23489;49.600;6.138;2023-06-14T14:24:18;4.97;;;3.22;;
37645;SDS011;23489;49.600;6.138;2023-06-14T14:26:44;6.13;;;3.10;;
37645;SDS011;23489;49.600;6.138;2023-06-14T14:29:13;5.15;;;3.17;;
37645;SDS011;23489;49.600;6.138;2023-06-14T14:31:39;4.70;;;3.50;;
37645;SDS011;23489;49.600;6.138;2023-06-14T14:34:05;4.75;;;3.50;;
37645;SDS011;23489;49.600;6.138;2023-06-14T14:36:31;5.55;;;3.40;;
37645;SDS011;23489;49.600;6.138;2023-06-14T14:38:58;7.20;;;3.40;;
37645;SDS011;23489;49.600;6.138;2023-06-14T14:41:24;4.18;;;3.20;;
37645;SDS011;23489;49.600;6.138;2023-06-14T14:43:50;4.20;;;2.90;;
37645;SDS011;23489;49.600;6.138;2023-06-14T14:46:15;5.20;;;3.37;;
37645;SDS011;23489;49.600;6.138;2023-06-14T14:48:41;6.93;;;3.17;;
37645;SDS011;23489;49.600;6.138;2023-06-14T14:51:07;4.40;;;3.20;;
37645;SDS011;23489;49.600;6.138;2023-06-14T14:53:33;5.93;;;2.90;;
37645;SDS011;23489;49.600;6.138;2023-06-14T14:55:59;5.32;;;3.03;;
37645;SDS011;23489;49.600;6.138;2023-06-14T14:58:25;6.20;;;3.40;;
37645;SDS011;23489;49.600;6.138;2023-06-14T15:00:51;5.18;;;3.17;;
37645;SDS011;23489;49.600;6.138;2023-06-14T15:03:16;5.68;;;2.95;;
37645;SDS011;23489;49.600;6.138;2023-06-14T15:05:42;6.07;;;3.23;;
37645;SDS011;23489;49.600;6.138;2023-06-14T15:08:08;5.17;;;2.90;;
37645;SDS011;23489;49.600;6.138;2023-06-14T15:10:37;5.32;;;3.28;;
37645;SDS011;23489;49.600;6.138;2023-06-14T15:13:06;4.63;;;3.17;;
37645;SDS011;23489;49.600;6.138;2023-06-14T15:15:35;7.88;;;3.25;;